Time;durP1;ratioP1;P1;durP2;ratioP2;P2;SDS_P1;SDS_P2;PMS_P1;PMS_P2;Temp;Humidity;BMP_temperature;BMP_pressure;BME280_temperature;BME280_humidity;BME280_pressure;Samples;Min_cycle;Max_cycle;Signal;HPM_P1;HPM_P2
2023/11/01 00:02:20;;;;;;;2.23;1.37;;;12.10;99.90;;;;;;5035179;28;20277;-74
2023/11/01 00:04:46;;;;;;;2.40;1.63;;;12.10;99.90;;;;;;5035433;28;20171;-74
2023/11/01 00:07:11;;;;;;;3.57;1.40;;;12.10;99.90;;;;;;5035464;28;20167;-74
2023/11/01 00:09:37;;;;;;;2.60;1.30;;;12.20;99.90;;;;;;5035137;28;20175;-74
2023/11/01 00:12:03;;;;;;;2.37;1.50;;;12.10;99.90;;;;;;5035325;28;20163;-76
2023/11/01 00:14:29;;;;;;;2.20;1.37;;;12.10;99.90;;;;;;5035151;28;20167;-75
2023/11/01 00:16:54;;;;;;;2.40;1.30;;;12.10;99.90;;;;;;5034646;28;20493;-74
2023/11/01 00:19:20;;;;;;;1.77;1.20;;;12.10;99.90;;;;;;5034824;28;20555;-75
2023/11/01 00:21:46;;;;;;;2.20;1.10;;;12.20;99.90;;;;;;5034698;28;20265;-75
2023/11/01 00:24:11;;;;;;;2.00;1.30;;;12.20;99.90;;;;;;5034804;28;20650;-74
2023/11/01 00:26:37;;;;;;;2.83;1.47;;;12.20;99.90;;;;;;5034998;28;20167;-75
2023/11/01 00:29:03;;;;;;;1.83;0.90;;;12.10;99.90;;;;;;5034756;28;20169;-74
2023/11/01 00:31:28;;;;;;;2.17;1.20;;;12.20;99.90;;;;;;5034712;28;20414;-73
2023/11/01 00:33:54;;;;;;;5.33;1.37;;;12.10;99.90;;;;;;5034645;28;20632;-74
2023/11/01 00:36:19;;;;;;;2.60;1.23;;;12.20;99.90;;;;;;5034972;28;20651;-74
2023/11/01 00:38:45;;;;;;;2.20;1.27;;;12.10;99.90;;;;;;5035146;28;20549;-73
2023/11/01 00:41:11;;;;;;;2.83;1.40;;;12.10;99.90;;;;;;5034478;28;20577;-75
2023/11/01 00:43:36;;;;;;;11.43;1.87;;;12.00;99.90;;;;;;5034421;28;20190;-75
2023/11/01 00:46:02;;;;;;;1.30;1.17;;;12.10;99.90;;;;;;5034399;28;20170;-73
2023/11/01 00:48:28;;;;;;;2.13;1.30;;;12.10;99.90;;;;;;5034376;28;20255;-73
2023/11/01 00:50:53;;;;;;;2.13;1.20;;;12.10;99.90;;;;;;5034338;28;20185;-74
2023/11/01 00:53:19;;;;;;;2.40;1.37;;;12.10;99.90;;;;;;5034394;28;20178;-73
2023/11/01 00:55:45;;;;;;;4.23;1.60;;;12.20;99.90;;;;;;5034240;28;20183;-74
2023/11/01 00:58:10;;;;;;;5.03;1.60;;;12.10;99.90;;;;;;5034242;28;20171;-74
2023/11/01 01:00:36;;;;;;;4.87;1.87;;;12.20;99.90;;;;;;5034081;28;20272;-74
2023/11/01 01:03:02;;;;;;;2.17;1.30;;;12.20;99.90;;;;;;5034356;28;20192;-75
2023/11/01 01:05:27;;;;;;;1.37;1.20;;;12.20;99.90;;;;;;5034062;28;20175;-75
2023/11/01 01:07:55;;;;;;;2.93;1.30;;;12.20;99.90;;;;;;5034072;28;20885;-74
2023/11/01 01:10:20;;;;;;;2.20;1.40;;;12.20;99.90;;;;;;5033970;28;20267;-74
2023/11/01 01:12:46;;;;;;;2.93;1.50;;;12.10;99.90;;;;;;5034008;28;20498;-73
2023/11/01 01:15:11;;;;;;;1.63;1.33;;;12.20;99.90;;;;;;5033582;28;20188;-74
2023/11/01 01:17:37;;;;;;;3.00;1.27;;;12.20;99.90;;;;;;5034086;28;20176;-74
2023/11/01 01:20:04;;;;;;;1.67;1.07;;;12.30;99.90;;;;;;5033763;28;20204;-73
2023/11/01 01:22:33;;;;;;;6.40;2.00;;;12.30;99.90;;;;;;5034243;28;20209;-75
2023/11/01 01:24:58;;;;;;;2.80;1.23;;;12.30;99.90;;;;;;5033646;28;20401;-73
2023/11/01 01:27:24;;;;;;;2.20;1.40;;;12.30;99.90;;;;;;5015884;28;20422;-74
2023/11/01 01:29:49;;;;;;;1.97;1.40;;;12.40;99.90;;;;;;5015909;28;20187;-74
2023/11/01 01:32:15;;;;;;;2.50;1.20;;;12.40;99.90;;;;;;5015906;28;20258;-75
2023/11/01 01:34:40;;;;;;;2.30;1.10;;;12.30;99.90;;;;;;5015761;28;20172;-75
2023/11/01 01:37:06;;;;;;;5.70;1.73;;;12.30;99.90;;;;;;5033522;28;20174;-74
2023/11/01 01:39:31;;;;;;;4.50;1.60;;;12.40;99.90;;;;;;5033675;28;20171;-74
2023/11/01 01:41:57;;;;;;;2.40;1.27;;;12.50;99.90;;;;;;5033435;28;20201;-74
2023/11/01 01:44:22;;;;;;;3.80;1.50;;;12.40;99.90;;;;;;5033376;28;20192;-74
2023/11/01 01:46:48;;;;;;;2.87;1.37;;;12.40;99.90;;;;;;5033349;28;20169;-74
2023/11/01 01:49:14;;;;;;;3.20;1.43;;;12.40;99.90;;;;;;5033307;28;20167;-74
2023/11/01 01:51:40;;;;;;;4.00;1.10;;;12.30;99.90;;;;;;5033222;28;20248;-74
2023/11/01 01:54:06;;;;;;;2.10;1.53;;;12.40;99.90;;;;;;5032844;28;20408;-75
2023/11/01 01:56:32;;;;;;;2.10;1.27;;;12.40;99.90;;;;;;5032039;28;20844;-74
2023/11/01 01:58:58;;;;;;;4.23;1.60;;;12.40;99.90;;;;;;5033474;28;20263;-74
2023/11/01 02:01:31;;;;;;;3.80;1.63;;;12.40;99.90;;;;;;5033067;28;20535;-74
2023/11/01 02:03:57;;;;;;;4.00;1.47;;;12.40;99.90;;;;;;5032719;28;20430;-74
2023/11/01 02:06:23;;;;;;;4.40;1.33;;;12.30;99.90;;;;;;5033161;28;20398;-74
2023/11/01 02:08:49;;;;;;;3.97;1.30;;;12.30;99.90;;;;;;5033150;28;20459;-74
2023/11/01 02:11:15;;;;;;;2.73;1.20;;;12.30;99.90;;;;;;5033275;28;20190;-74
2023/11/01 02:13:41;;;;;;;2.20;1.30;;;12.30;99.90;;;;;;5033061;28;20188;-74
2023/11/01 02:16:07;;;;;;;2.00;1.40;;;12.30;99.90;;;;;;5032936;28;20415;-74
2023/11/01 02:18:33;;;;;;;2.40;1.40;;;12.30;99.90;;;;;;5032519;28;20169;-74
2023/11/01 02:20:59;;;;;;;1.53;1.43;;;12.30;99.90;;;;;;5056517;22;20496;-74
2023/11/01 02:23:34;;;;;;;3.80;1.60;;;12.20;99.90;;;;;;5033016;28;20689;-73
2023/11/01 02:26:01;;;;;;;2.33;1.40;;;12.30;99.90;;;;;;5032692;28;20167;-74
2023/11/01 02:28:27;;;;;;;2.93;1.30;;;12.30;99.90;;;;;;5032752;28;20424;-73
2023/11/01 02:30:52;;;;;;;2.47;1.60;;;12.20;99.90;;;;;;5015121;28;20426;-74
2023/11/01 02:33:18;;;;;;;4.03;1.30;;;12.20;99.90;;;;;;5032654;28;20744;-74
2023/11/01 02:35:44;;;;;;;6.93;1.70;;;12.10;99.90;;;;;;5015005;28;20170;-75
2023/11/01 02:38:11;;;;;;;5.17;1.13;;;12.20;99.90;;;;;;5033044;28;20628;-74
2023/11/01 02:40:36;;;;;;;1.13;1.00;;;12.20;99.90;;;;;;5033000;28;20189;-75
2023/11/01 02:43:02;;;;;;;1.53;1.40;;;12.10;99.90;;;;;;5032634;28;20447;-74
2023/11/01 02:45:27;;;;;;;2.10;1.17;;;12.10;99.90;;;;;;5032558;28;20259;-75
2023/11/01 02:47:53;;;;;;;2.07;1.20;;;12.10;99.90;;;;;;5032737;28;20169;-75
2023/11/01 02:50:19;;;;;;;3.87;1.20;;;12.00;99.90;;;;;;5032570;28;20184;-74
2023/11/01 02:52:45;;;;;;;2.47;1.60;;;11.90;99.90;;;;;;5032674;28;20198;-75
2023/11/01 02:55:13;;;;;;;3.30;1.70;;;11.90;99.90;;;;;;5032648;28;20409;-75
2023/11/01 02:57:39;;;;;;;2.90;1.27;;;11.90;99.90;;;;;;5032587;28;20501;-75
2023/11/01 03:00:07;;;;;;;1.87;1.30;;;11.90;99.90;;;;;;5032447;28;20906;-74
2023/11/01 03:02:34;;;;;;;2.60;1.43;;;11.90;99.90;;;;;;5014637;28;20577;-74
2023/11/01 03:04:59;;;;;;;2.30;1.40;;;11.90;99.90;;;;;;5032278;28;20929;-74
2023/11/01 03:07:25;;;;;;;2.03;1.40;;;11.90;99.90;;;;;;5032348;28;20491;-74
2023/11/01 03:09:51;;;;;;;1.90;1.17;;;11.90;99.90;;;;;;5032628;28;20170;-74
2023/11/01 03:12:16;;;;;;;4.13;1.57;;;11.90;99.90;;;;;;5032344;28;20176;-73
2023/11/01 03:14:42;;;;;;;3.67;1.53;;;11.90;99.90;;;;;;5032455;28;20563;-74
2023/11/01 03:17:08;;;;;;;2.30;1.10;;;11.80;99.90;;;;;;5036098;28;20167;-74
2023/11/01 03:19:34;;;;;;;3.63;1.33;;;11.80;99.90;;;;;;5036022;28;20253;-74
2023/11/01 03:22:01;;;;;;;3.27;1.20;;;11.90;99.90;;;;;;5035710;28;20490;-75
2023/11/01 03:24:26;;;;;;;3.33;1.20;;;11.80;99.90;;;;;;5035852;28;20927;-74
2023/11/01 03:26:52;;;;;;;3.30;1.17;;;11.80;99.90;;;;;;5018215;28;20201;-74
2023/11/01 03:29:17;;;;;;;2.40;1.30;;;11.80;99.90;;;;;;5035826;28;20632;-74
2023/11/01 03:31:43;;;;;;;4.33;1.23;;;11.90;99.90;;;;;;5017995;28;20194;-74
2023/11/01 03:34:09;;;;;;;2.97;1.30;;;11.80;99.90;;;;;;5035752;28;20180;-74
2023/11/01 03:36:35;;;;;;;3.30;1.60;;;11.90;99.90;;;;;;5036247;28;20193;-74
2023/11/01 03:39:00;;;;;;;2.13;1.40;;;11.90;99.90;;;;;;5017838;28;20422;-74
2023/11/01 03:41:26;;;;;;;2.83;1.00;;;11.90;99.90;;;;;;5035478;28;20187;-74
2023/11/01 03:43:52;;;;;;;1.87;1.10;;;11.80;99.90;;;;;;5035780;28;20755;-74
2023/11/01 03:46:17;;;;;;;2.00;1.30;;;11.90;99.90;;;;;;5035506;28;20240;-74
2023/11/01 03:48:43;;;;;;;3.30;1.30;;;11.90;99.90;;;;;;5035742;28;20174;-74
2023/11/01 03:51:09;;;;;;;3.17;1.10;;;11.70;99.90;;;;;;5035476;28;20229;-74
2023/11/01 03:53:34;;;;;;;2.20;1.07;;;11.80;99.90;;;;;;5035630;28;20635;-74
2023/11/01 03:56:00;;;;;;;2.53;1.00;;;11.70;99.90;;;;;;5035259;28;20581;-74
2023/11/01 03:58:25;;;;;;;2.00;1.30;;;11.80;99.90;;;;;;5017496;28;20186;-74
2023/11/01 04:00:51;;;;;;;1.47;1.00;;;11.80;99.90;;;;;;5035236;28;20205;-74
2023/11/01 04:03:16;;;;;;;2.30;1.13;;;11.80;99.90;;;;;;5034731;28;20226;-74
2023/11/01 04:05:42;;;;;;;2.80;1.10;;;11.70;99.90;;;;;;5035182;28;20204;-75
2023/11/01 04:08:07;;;;;;;6.80;1.27;;;11.70;99.90;;;;;;5017382;28;20193;-75
2023/11/01 04:10:33;;;;;;;1.00;0.80;;;11.70;99.90;;;;;;5035172;28;20572;-74
2023/11/01 04:12:59;;;;;;;3.10;1.57;;;11.80;99.90;;;;;;5035089;28;20230;-74
2023/11/01 04:15:25;;;;;;;3.43;1.43;;;11.70;99.90;;;;;;5016860;28;20181;-74
2023/11/01 04:17:51;;;;;;;2.40;1.10;;;11.60;99.90;;;;;;5017340;28;20170;-75
2023/11/01 04:20:17;;;;;;;4.07;1.17;;;11.60;99.90;;;;;;5034899;28;20696;-74
2023/11/01 04:22:43;;;;;;;3.80;1.67;;;11.50;99.90;;;;;;5035300;28;20437;-74
2023/11/01 04:25:11;;;;;;;3.40;1.40;;;11.50;99.90;;;;;;5034793;28;20163;-74
2023/11/01 04:27:39;;;;;;;2.70;1.17;;;11.50;99.90;;;;;;5034487;28;20179;-74
2023/11/01 04:30:09;;;;;;;2.90;1.10;;;11.50;99.90;;;;;;5034972;28;20536;-74
2023/11/01 04:32:38;;;;;;;2.60;1.53;;;11.50;99.90;;;;;;5034713;28;20462;-74
2023/11/01 04:35:09;;;;;;;1.30;0.87;;;11.40;99.90;;;;;;5034599;28;20417;-74
2023/11/01 04:37:37;;;;;;;2.80;1.10;;;11.40;99.90;;;;;;5034943;28;20390;-74
2023/11/01 04:40:04;;;;;;;3.63;1.20;;;11.50;99.90;;;;;;5034572;28;20414;-74
2023/11/01 04:42:29;;;;;;;2.93;1.23;;;11.30;99.90;;;;;;5034483;28;20503;-74
2023/11/01 04:44:56;;;;;;;2.70;1.00;;;11.20;99.90;;;;;;5034435;28;20786;-74
2023/11/01 04:47:22;;;;;;;1.77;1.37;;;11.20;99.90;;;;;;5034338;28;20174;-74
2023/11/01 04:49:47;;;;;;;4.23;1.10;;;11.30;99.90;;;;;;5034376;28;20403;-74
2023/11/01 04:52:13;;;;;;;2.40;1.27;;;11.20;99.90;;;;;;5034362;28;20190;-74
2023/11/01 04:54:38;;;;;;;3.40;1.10;;;11.20;99.90;;;;;;5034243;28;20240;-74
2023/11/01 04:57:05;;;;;;;2.10;0.90;;;11.20;99.90;;;;;;5034207;28;20201;-75
2023/11/01 04:59:31;;;;;;;4.50;1.53;;;11.20;99.90;;;;;;5016422;28;20262;-74
2023/11/01 05:01:57;;;;;;;2.70;1.03;;;11.20;99.90;;;;;;5033969;28;20462;-74
2023/11/01 05:04:23;;;;;;;2.27;1.37;;;11.20;99.90;;;;;;5034119;28;20824;-74
2023/11/01 05:06:52;;;;;;;2.77;1.37;;;11.30;99.90;;;;;;5033972;28;20433;-75
2023/11/01 05:09:18;;;;;;;2.40;1.20;;;11.20;99.90;;;;;;5033934;28;20175;-74
2023/11/01 05:11:47;;;;;;;3.63;1.20;;;11.30;99.90;;;;;;5033834;28;20436;-74
2023/11/01 05:14:13;;;;;;;4.93;1.20;;;11.20;99.90;;;;;;5033997;28;20410;-75
2023/11/01 05:16:39;;;;;;;2.00;1.00;;;11.20;99.90;;;;;;5034085;28;20828;-74
2023/11/01 05:19:08;;;;;;;2.73;1.30;;;11.20;99.90;;;;;;5034266;28;20409;-74
2023/11/01 05:21:36;;;;;;;3.13;1.30;;;11.10;99.90;;;;;;5018418;28;20980;-74
2023/11/01 05:24:51;;;;;;;5.07;1.20;;;11.10;99.90;;;;;;5038888;28;20465;-74
2023/11/01 05:27:19;;;;;;;3.23;1.20;;;11.00;99.90;;;;;;5014275;28;20411;-74
2023/11/01 05:29:45;;;;;;;4.30;1.47;;;10.90;99.90;;;;;;5027271;28;20421;-74
2023/11/01 05:32:10;;;;;;;3.53;1.90;;;11.00;99.90;;;;;;5028213;28;20474;-74
2023/11/01 05:34:36;;;;;;;2.73;1.17;;;11.10;99.90;;;;;;5029020;28;20481;-74
2023/11/01 05:37:03;;;;;;;4.43;1.50;;;11.10;99.90;;;;;;5033473;28;20262;-74
2023/11/01 05:39:28;;;;;;;1.83;1.10;;;11.00;99.90;;;;;;5014876;28;20242;-74
2023/11/01 05:41:54;;;;;;;5.73;1.30;;;11.10;99.90;;;;;;5033350;28;20433;-75
2023/11/01 05:44:20;;;;;;;1.73;0.87;;;11.10;99.90;;;;;;5033111;28;20218;-75
2023/11/01 05:46:51;;;;;;;3.53;1.27;;;11.20;99.90;;;;;;5033526;28;20179;-74
2023/11/01 05:49:17;;;;;;;1.50;1.00;;;11.30;99.90;;;;;;5033553;28;20213;-75
2023/11/01 05:51:42;;;;;;;3.20;1.50;;;11.30;99.90;;;;;;5033187;28;20930;-74
2023/11/01 05:54:08;;;;;;;3.50;1.10;;;11.10;99.90;;;;;;5033133;28;20656;-74
2023/11/01 05:56:33;;;;;;;1.90;1.03;;;11.20;99.90;;;;;;5033176;28;20206;-74
2023/11/01 05:58:59;;;;;;;2.47;1.10;;;11.20;99.90;;;;;;5015904;28;20179;-74
2023/11/01 06:01:25;;;;;;;2.13;1.23;;;11.30;99.90;;;;;;5033307;28;20208;-74
2023/11/01 06:03:55;;;;;;;3.20;1.40;;;11.10;99.90;;;;;;5015471;28;20669;-74
2023/11/01 06:06:21;;;;;;;5.20;2.30;;;11.00;99.90;;;;;;5033013;28;20204;-75
2023/11/01 06:08:47;;;;;;;5.03;1.57;;;11.10;99.90;;;;;;5032950;28;20896;-74
2023/11/01 06:11:12;;;;;;;3.20;1.40;;;11.00;99.90;;;;;;5032404;28;20962;-75
2023/11/01 06:13:38;;;;;;;2.20;1.37;;;11.10;99.90;;;;;;5032942;28;20212;-75
2023/11/01 06:16:04;;;;;;;4.83;1.57;;;10.90;99.90;;;;;;5032987;28;20198;-74
2023/11/01 06:18:34;;;;;;;5.57;1.53;;;10.90;99.90;;;;;;5033135;28;20688;-75
2023/11/01 06:21:00;;;;;;;2.63;1.50;;;10.90;99.90;;;;;;5015159;28;20467;-75
2023/11/01 06:23:25;;;;;;;1.90;1.10;;;10.90;99.90;;;;;;5032884;28;20448;-75
2023/11/01 06:25:51;;;;;;;2.47;1.67;;;11.10;99.90;;;;;;5032948;28;20844;-74
2023/11/01 06:28:17;;;;;;;10.20;8.83;;;11.10;99.90;;;;;;5015149;28;20172;-74
2023/11/01 06:30:42;;;;;;;9.23;8.17;;;11.10;99.90;;;;;;5032916;28;20647;-75
2023/11/01 06:33:08;;;;;;;6.80;5.67;;;11.30;99.90;;;;;;5014862;28;20175;-75
2023/11/01 06:35:34;;;;;;;5.00;4.43;;;11.30;99.90;;;;;;5032590;28;20188;-75
2023/11/01 06:38:00;;;;;;;4.07;3.67;;;11.40;99.90;;;;;;5014971;28;20418;-74
2023/11/01 06:40:25;;;;;;;4.80;2.80;;;11.40;99.90;;;;;;5015100;28;20206;-75
2023/11/01 06:42:51;;;;;;;3.57;2.00;;;11.40;99.90;;;;;;5033088;28;20187;-75
2023/11/01 06:45:16;;;;;;;4.43;1.87;;;11.40;99.90;;;;;;5032505;28;20681;-74
2023/11/01 06:47:42;;;;;;;2.37;2.10;;;11.40;99.90;;;;;;5014848;28;20270;-74
2023/11/01 06:50:08;;;;;;;3.63;1.93;;;11.40;99.90;;;;;;5034806;28;20560;-75
2023/11/01 06:52:34;;;;;;;3.50;2.37;;;11.20;99.90;;;;;;5037044;28;20549;-74
2023/11/01 06:55:00;;;;;;;3.97;2.00;;;11.20;99.90;;;;;;5036677;28;20489;-74
2023/11/01 06:57:26;;;;;;;4.33;1.90;;;11.20;99.90;;;;;;5036623;28;20175;-74
2023/11/01 06:59:51;;;;;;;4.10;2.10;;;11.20;99.90;;;;;;5036261;28;20444;-74
2023/11/01 07:02:17;;;;;;;4.20;1.73;;;11.20;99.90;;;;;;5036240;28;20179;-74
2023/11/01 07:04:42;;;;;;;3.50;1.80;;;11.20;99.90;;;;;;5036260;28;20163;-74
2023/11/01 07:07:09;;;;;;;2.70;1.77;;;11.20;99.90;;;;;;5036141;28;20167;-74
2023/11/01 07:09:35;;;;;;;2.17;1.57;;;11.20;99.90;;;;;;5036481;28;20170;-74
2023/11/01 07:12:01;;;;;;;2.70;1.47;;;11.40;99.90;;;;;;5036133;28;20802;-74
2023/11/01 07:14:26;;;;;;;1.70;1.30;;;11.50;99.90;;;;;;5035870;28;20408;-74
2023/11/01 07:16:52;;;;;;;4.10;2.00;;;11.20;99.90;;;;;;5018283;28;20263;-74
2023/11/01 07:19:18;;;;;;;2.93;1.40;;;11.30;99.90;;;;;;5035828;28;20178;-74
2023/11/01 07:21:46;;;;;;;4.47;1.40;;;11.20;99.90;;;;;;5018030;28;20242;-74
2023/11/01 07:24:13;;;;;;;3.30;1.40;;;11.20;99.90;;;;;;5035540;28;20184;-74
2023/11/01 07:26:39;;;;;;;2.30;1.37;;;11.40;99.90;;;;;;5036076;28;20430;-74
2023/11/01 07:29:04;;;;;;;2.10;1.37;;;11.50;99.90;;;;;;5035814;28;20399;-74
2023/11/01 07:31:30;;;;;;;3.10;1.90;;;11.40;99.90;;;;;;5035881;28;20218;-75
2023/11/01 07:33:56;;;;;;;2.33;1.80;;;11.50;99.90;;;;;;5035757;28;20639;-75
2023/11/01 07:36:22;;;;;;;4.60;2.00;;;11.50;99.90;;;;;;5035637;28;20528;-75
2023/11/01 07:38:47;;;;;;;4.03;3.00;;;11.60;99.90;;;;;;5035776;28;20268;-74
2023/11/01 07:41:14;;;;;;;6.30;4.30;;;11.70;99.90;;;;;;5035796;28;20217;-75
2023/11/01 07:43:40;;;;;;;12.07;10.77;;;11.70;99.90;;;;;;5035489;28;20696;-74
2023/11/01 07:46:08;;;;;;;3.50;3.17;;;11.70;99.90;;;;;;5017693;28;20438;-74
2023/11/01 07:48:35;;;;;;;6.37;4.90;;;11.70;99.90;;;;;;5035455;28;20416;-74
2023/11/01 07:51:05;;;;;;;2.50;1.47;;;11.80;99.90;;;;;;5035352;28;20435;-75
2023/11/01 07:53:31;;;;;;;5.70;2.27;;;11.80;99.90;;;;;;5035588;28;20406;-75
2023/11/01 07:55:57;;;;;;;3.10;2.10;;;11.90;99.90;;;;;;5035557;28;20497;-75
2023/11/01 07:58:23;;;;;;;2.87;1.73;;;12.10;99.90;;;;;;5035401;28;20163;-75
2023/11/01 08:00:49;;;;;;;3.33;1.90;;;11.90;99.90;;;;;;5034696;28;20471;-75
2023/11/01 08:03:14;;;;;;;1.73;1.60;;;12.00;99.90;;;;;;5034660;28;20590;-75
2023/11/01 08:05:40;;;;;;;3.93;2.53;;;12.10;99.90;;;;;;5035238;28;20206;-75
2023/11/01 08:08:06;;;;;;;4.10;3.37;;;12.10;99.90;;;;;;5035186;28;20173;-75
2023/11/01 08:10:32;;;;;;;9.50;8.63;;;12.20;99.90;;;;;;5035212;28;20347;-75
2023/11/01 08:12:57;;;;;;;3.60;2.43;;;12.10;99.90;;;;;;5034582;28;20497;-74
2023/11/01 08:15:23;;;;;;;4.57;3.13;;;12.10;99.90;;;;;;5034940;28;20167;-75
2023/11/01 08:17:48;;;;;;;9.37;5.87;;;12.30;99.90;;;;;;5017277;28;20679;-75
2023/11/01 08:20:14;;;;;;;5.50;3.33;;;12.60;99.90;;;;;;5034782;28;20625;-75
2023/11/01 08:22:39;;;;;;;3.40;3.10;;;12.90;99.90;;;;;;5035795;28;20206;-75
2023/11/01 08:25:07;;;;;;;7.10;3.13;;;13.10;99.90;;;;;;5035130;28;20202;-75
2023/11/01 08:27:32;;;;;;;3.30;1.80;;;13.10;99.90;;;;;;5034921;28;20167;-75
2023/11/01 08:29:58;;;;;;;3.43;1.87;;;12.80;99.90;;;;;;5034751;28;20404;-74
2023/11/01 08:32:24;;;;;;;1.47;1.30;;;12.90;99.90;;;;;;5034853;28;20175;-74
2023/11/01 08:34:49;;;;;;;3.03;1.50;;;12.80;99.90;;;;;;5034693;28;20259;-75
2023/11/01 08:37:15;;;;;;;2.70;1.53;;;12.90;99.90;;;;;;5017227;28;20178;-74
2023/11/01 08:39:40;;;;;;;3.70;1.30;;;13.20;99.90;;;;;;5034893;28;20236;-74
2023/11/01 08:42:06;;;;;;;1.63;1.17;;;13.40;99.90;;;;;;5034372;28;20213;-74
2023/11/01 08:44:32;;;;;;;3.07;2.17;;;13.30;99.90;;;;;;5017009;28;20171;-74
2023/11/01 08:47:04;;;;;;;2.83;1.30;;;13.30;99.90;;;;;;5035201;28;20171;-74
2023/11/01 08:49:30;;;;;;;2.60;1.63;;;13.30;99.90;;;;;;5034883;28;20584;-75
2023/11/01 08:51:55;;;;;;;2.07;1.30;;;13.40;99.90;;;;;;5034445;28;20476;-74
2023/11/01 08:54:21;;;;;;;2.37;0.83;;;13.50;99.90;;;;;;5034520;28;20206;-74
2023/11/01 08:56:46;;;;;;;1.80;1.10;;;13.50;99.90;;;;;;5034934;28;20177;-74
2023/11/01 08:59:12;;;;;;;1.83;0.83;;;13.50;99.90;;;;;;5034949;28;20182;-75
2023/11/01 09:01:38;;;;;;;1.13;0.80;;;13.60;99.90;;;;;;5034549;28;20567;-74
2023/11/01 09:04:03;;;;;;;2.90;1.00;;;13.70;99.90;;;;;;5039428;28;20693;-74
2023/11/01 09:06:32;;;;;;;3.63;1.23;;;13.60;99.90;;;;;;5039753;28;20216;-74
2023/11/01 09:08:59;;;;;;;2.47;1.33;;;13.60;99.90;;;;;;5035535;28;20155;-74
2023/11/01 09:11:25;;;;;;;2.47;1.10;;;13.70;99.90;;;;;;5047078;28;20425;-74
2023/11/01 09:13:50;;;;;;;1.50;1.00;;;13.80;99.90;;;;;;5031014;28;20421;-75
2023/11/01 09:16:18;;;;;;;3.50;1.30;;;14.00;99.90;;;;;;5040183;28;20437;-75
2023/11/01 09:18:43;;;;;;;1.83;1.10;;;14.20;99.90;;;;;;5035034;28;20740;-76
2023/11/01 09:21:09;;;;;;;1.83;0.90;;;14.40;99.90;;;;;;5034626;28;20514;-76
2023/11/01 09:23:35;;;;;;;5.00;1.27;;;14.60;99.90;;;;;;5034833;28;20190;-75
2023/11/01 09:26:01;;;;;;;2.10;1.20;;;14.80;99.90;;;;;;5035360;28;20224;-76
2023/11/01 09:28:27;;;;;;;5.30;1.53;;;14.90;99.90;;;;;;5034255;28;20636;-75
2023/11/01 09:30:52;;;;;;;2.73;1.20;;;15.10;99.90;;;;;;5035035;28;20480;-77
2023/11/01 09:33:18;;;;;;;4.53;1.40;;;15.20;99.90;;;;;;5035002;28;20638;-76
2023/11/01 09:35:44;;;;;;;1.50;0.80;;;15.10;99.90;;;;;;5035453;28;20541;-76
2023/11/01 09:38:09;;;;;;;3.27;1.00;;;15.20;99.90;;;;;;5017785;28;20588;-76
2023/11/01 09:40:35;;;;;;;1.40;0.90;;;15.30;99.90;;;;;;5033426;28;20224;-76
2023/11/01 09:43:00;;;;;;;3.40;1.03;;;15.30;99.90;;;;;;5033818;28;20192;-76
2023/11/01 09:45:26;;;;;;;1.60;1.00;;;15.50;99.90;;;;;;5033743;28;20188;-76
2023/11/01 09:47:52;;;;;;;1.83;0.87;;;15.60;99.90;;;;;;5034049;28;20177;-75
2023/11/01 09:50:18;;;;;;;2.03;0.90;;;15.70;99.90;;;;;;5033360;28;20423;-76
2023/11/01 09:52:44;;;;;;;1.23;0.80;;;15.90;99.90;;;;;;5033298;28;20254;-75
2023/11/01 09:55:13;;;;;;;3.37;1.23;;;15.80;99.90;;;;;;5033263;28;20163;-76
2023/11/01 09:57:42;;;;;;;2.37;0.90;;;15.90;99.90;;;;;;5033626;28;20281;-76
2023/11/01 10:00:08;;;;;;;3.73;1.20;;;16.00;99.90;;;;;;5015104;28;20441;-76
2023/11/01 10:02:34;;;;;;;2.67;1.10;;;16.10;99.90;;;;;;5013458;28;20442;-76
2023/11/01 10:04:59;;;;;;;3.03;0.93;;;16.20;99.90;;;;;;5016559;28;20402;-76
2023/11/01 10:07:25;;;;;;;1.40;0.70;;;16.30;99.90;;;;;;5032981;28;20258;-76
2023/11/01 10:09:52;;;;;;;2.70;0.90;;;16.30;99.90;;;;;;5033484;28;20160;-76
2023/11/01 10:12:19;;;;;;;1.43;1.10;;;16.40;99.90;;;;;;5033406;28;20178;-73
2023/11/01 10:14:44;;;;;;;1.93;0.93;;;16.50;99.90;;;;;;5033706;28;20402;-76
2023/11/01 10:17:10;;;;;;;3.30;1.00;;;16.30;99.90;;;;;;5032959;28;20416;-75
2023/11/01 10:19:36;;;;;;;3.83;0.97;;;16.30;99.90;;;;;;5032521;28;20189;-76
2023/11/01 10:22:02;;;;;;;2.40;0.70;;;16.30;99.90;;;;;;5032790;28;20217;-76
2023/11/01 10:24:28;;;;;;;5.07;1.30;;;16.60;99.90;;;;;;5032592;28;20453;-76
2023/11/01 10:26:55;;;;;;;3.57;0.80;;;16.70;99.90;;;;;;5033482;28;20171;-76
2023/11/01 10:29:22;;;;;;;3.20;1.00;;;16.70;99.90;;;;;;5033201;28;20521;-76
2023/11/01 10:31:53;;;;;;;1.80;0.93;;;16.90;99.90;;;;;;5033914;28;20493;-76
2023/11/01 10:34:19;;;;;;;1.77;1.00;;;17.10;99.90;;;;;;5033066;28;20410;-76
2023/11/01 10:36:51;;;;;;;1.30;0.90;;;17.20;99.90;;;;;;5032743;28;20559;-76
2023/11/01 10:39:18;;;;;;;2.00;0.80;;;17.50;99.90;;;;;;5032879;28;20167;-76
2023/11/01 10:41:48;;;;;;;1.97;1.00;;;17.60;99.90;;;;;;5032690;28;20425;-76
2023/11/01 10:44:15;;;;;;;1.37;0.90;;;17.80;99.90;;;;;;5032870;28;20446;-76
2023/11/01 10:46:41;;;;;;;1.40;0.60;;;18.10;99.90;;;;;;5015027;28;20421;-76
2023/11/01 10:49:14;;;;;;;2.40;1.47;;;19.00;99.90;;;;;;5032599;28;20933;-76
2023/11/01 10:51:41;;;;;;;3.17;1.20;;;19.90;99.90;;;;;;5032615;28;20430;-76
2023/11/01 10:54:08;;;;;;;2.97;1.30;;;21.10;99.20;;;;;;5014803;28;20402;-75
2023/11/01 10:56:34;;;;;;;3.17;1.90;;;21.90;96.50;;;;;;5032395;28;20437;-76
2023/11/01 10:59:23;;;;;;;1.60;0.80;;;22.30;94.10;;;;;;5015013;28;20940;-76
2023/11/01 11:02:07;;;;;;;1.50;0.83;;;22.80;94.00;;;;;;5032783;28;20210;-76
2023/11/01 11:05:00;;;;;;;1.53;0.87;;;23.80;91.90;;;;;;5032849;28;20535;-77
2023/11/01 11:07:48;;;;;;;2.43;0.70;;;23.40;91.20;;;;;;5016834;28;20487;-76
2023/11/01 11:10:34;;;;;;;1.10;0.80;;;22.50;91.90;;;;;;5027525;28;20487;-75
2023/11/01 11:13:16;;;;;;;2.10;0.70;;;22.10;92.80;;;;;;5032783;28;20386;-76
2023/11/01 11:18:14;;;;;;;1.30;0.87;;;22.00;91.30;;;;;;5032787;28;20912;-76
2023/11/01 11:20:40;;;;;;;1.40;0.83;;;22.30;91.40;;;;;;5032103;28;20453;-77
2023/11/01 11:23:06;;;;;;;2.70;1.17;;;22.70;90.90;;;;;;5032287;28;20549;-76
2023/11/01 11:25:38;;;;;;;2.00;0.90;;;23.30;90.90;;;;;;5032424;28;20429;-77
2023/11/01 11:28:34;;;;;;;1.07;0.70;;;23.30;91.60;;;;;;5032361;28;20160;-76
2023/11/01 11:31:07;;;;;;;2.50;1.00;;;23.10;90.10;;;;;;5008226;28;20819;-76
2023/11/01 11:33:36;;;;;;;2.57;0.90;;;23.50;88.50;;;;;;5032516;28;20397;-76
2023/11/01 11:36:10;;;;;;;2.37;0.77;;;23.60;88.60;;;;;;5032275;28;20912;-76
2023/11/01 11:38:37;;;;;;;1.70;0.70;;;24.60;86.40;;;;;;5035768;28;20990;-76
2023/11/01 11:41:26;;;;;;;3.87;1.20;;;25.10;84.40;;;;;;5036001;28;20819;-76
2023/11/01 11:44:12;;;;;;;1.73;0.77;;;25.00;80.20;;;;;;5035734;28;20430;-76
2023/11/01 11:46:45;;;;;;;1.80;0.80;;;24.00;82.00;;;;;;5035865;28;20394;-76
2023/11/01 11:49:20;;;;;;;2.20;0.90;;;23.80;82.70;;;;;;5035730;28;20383;-76
2023/11/01 11:51:56;;;;;;;2.30;0.83;;;23.00;85.70;;;;;;5035089;28;20421;-76
2023/11/01 11:54:25;;;;;;;2.10;0.80;;;22.60;87.10;;;;;;5036301;28;20492;-76
2023/11/01 11:57:07;;;;;;;1.00;0.60;;;21.90;89.40;;;;;;5035796;28;20403;-76
2023/11/01 11:59:34;;;;;;;1.30;0.70;;;21.20;90.00;;;;;;5035650;28;20481;-77
2023/11/01 12:02:15;;;;;;;2.10;0.90;;;20.70;91.10;;;;;;5035669;28;20426;-76
2023/11/01 12:04:43;;;;;;;2.30;0.97;;;20.90;92.10;;;;;;5035820;28;20839;-75
2023/11/01 12:07:18;;;;;;;1.77;1.03;;;21.20;91.70;;;;;;5035726;28;20402;-77
2023/11/01 12:09:48;;;;;;;1.70;0.90;;;21.10;91.60;;;;;;5035506;28;20392;-77
2023/11/01 12:12:14;;;;;;;1.20;1.00;;;21.00;92.10;;;;;;5035729;28;20407;-77
2023/11/01 12:14:40;;;;;;;1.40;0.83;;;20.90;92.40;;;;;;5035740;28;20402;-76
2023/11/01 12:17:06;;;;;;;4.13;1.40;;;20.70;92.40;;;;;;5035050;28;20553;-76
2023/11/01 12:19:35;;;;;;;3.13;2.70;;;21.00;93.30;;;;;;5035309;28;20394;-76
2023/11/01 12:22:01;;;;;;;1.47;1.13;;;21.30;92.70;;;;;;5035011;28;20202;-76
2023/11/01 12:24:46;;;;;;;1.97;0.90;;;21.80;92.60;;;;;;5035780;28;20940;-76
2023/11/01 12:27:14;;;;;;;1.50;0.90;;;22.10;91.00;;;;;;5035960;28;20209;-76
2023/11/01 12:29:51;;;;;;;4.50;1.30;;;23.10;90.40;;;;;;5035483;28;20456;-76
2023/11/01 12:32:23;;;;;;;2.30;0.90;;;23.50;89.20;;;;;;5035689;28;20877;-76
2023/11/01 12:34:49;;;;;;;2.13;0.80;;;23.80;85.40;;;;;;5035755;28;20461;-76
2023/11/01 12:37:19;;;;;;;2.70;0.90;;;23.40;86.30;;;;;;5035890;28;20402;-77
2023/11/01 12:40:09;;;;;;;1.80;1.10;;;22.80;87.80;;;;;;5035387;28;20182;-76
2023/11/01 12:42:37;;;;;;;1.63;0.90;;;21.60;90.40;;;;;;5042212;28;20501;-76
2023/11/01 12:45:04;;;;;;;3.60;1.03;;;20.80;91.60;;;;;;5050265;28;20394;-76
2023/11/01 12:47:40;;;;;;;1.33;0.70;;;20.20;93.80;;;;;;5022367;28;20927;-77
2023/11/01 12:50:07;;;;;;;1.50;0.90;;;19.90;93.40;;;;;;5045439;28;20432;-77